sensor_id;sensor_type;location;lat;lon;timestamp;P1;durP1;ratioP1;P2;durP2;ratioP2
71629;SDS011;59479;51.902;8.212;2024-02-21T00:01:50;19.23;;;6.30;;
71629;SDS011;59479;51.902;8.212;2024-02-21T00:04:15;16.63;;;6.60;;
71629;SDS011;59479;51.902;8.212;2024-02-21T00:06:41;14.68;;;5.25;;
71629;SDS011;59479;51.902;8.212;2024-02-21T00:09:06;18.77;;;6.43;;
71629;SDS011;59479;51.902;8.212;2024-02-21T00:11:31;17.10;;;5.93;;
71629;SDS011;59479;51.902;8.212;2024-02-21T00:13:57;21.27;;;6.53;;
71629;SDS011;59479;51.902;8.212;2024-02-21T00:16:22;22.80;;;7.83;;
71629;SDS011;59479;51.902;8.212;2024-02-21T00:18:48;16.40;;;6.80;;
71629;SDS011;59479;51.902;8.212;2024-02-21T00:21:18;19.63;;;6.82;;
71629;SDS011;59479;51.902;8.212;2024-02-21T00:23:44;17.33;;;5.47;;
71629;SDS011;59479;51.902;8.212;2024-02-21T00:26:14;17.67;;;5.93;;
71629;SDS011;59479;51.902;8.212;2024-02-21T00:28:40;17.15;;;5.78;;
71629;SDS011;59479;51.902;8.212;2024-02-21T00:31:05;17.97;;;6.63;;
71629;SDS011;59479;51.902;8.212;2024-02-21T00:33:30;16.83;;;6.43;;
71629;SDS011;59479;51.902;8.212;2024-02-21T00:35:56;16.53;;;5.73;;
71629;SDS011;59479;51.902;8.212;2024-02-21T00:38:21;22.57;;;7.77;;
71629;SDS011;59479;51.902;8.212;2024-02-21T00:40:47;14.23;;;5.28;;
71629;SDS011;59479;51.902;8.212;2024-02-21T00:43:12;16.40;;;5.57;;
71629;SDS011;59479;51.902;8.212;2024-02-21T00:45:38;15.80;;;5.60;;
71629;SDS011;59479;51.902;8.212;2024-02-21T00:48:03;21.23;;;6.80;;
71629;SDS011;59479;51.902;8.212;2024-02-21T00:50:29;17.90;;;7.00;;
71629;SDS011;59479;51.902;8.212;2024-02-21T00:52:54;16.47;;;4.80;;
71629;SDS011;59479;51.902;8.212;2024-02-21T00:55:22;20.75;;;6.93;;
71629;SDS011;59479;51.902;8.212;2024-02-21T00:57:48;16.38;;;5.88;;
71629;SDS011;59479;51.902;8.212;2024-02-21T01:00:13;16.58;;;5.60;;
71629;SDS011;59479;51.902;8.212;2024-02-21T01:02:39;13.20;;;4.53;;
71629;SDS011;59479;51.902;8.212;2024-02-21T01:05:05;12.18;;;5.38;;
71629;SDS011;59479;51.902;8.212;2024-02-21T01:07:32;17.23;;;5.97;;
71629;SDS011;59479;51.902;8.212;2024-02-21T01:09:58;20.15;;;5.95;;
71629;SDS011;59479;51.902;8.212;2024-02-21T01:12:23;19.63;;;6.33;;
71629;SDS011;59479;51.902;8.212;2024-02-21T01:14:50;13.05;;;5.10;;
71629;SDS011;59479;51.902;8.212;2024-02-21T01:17:15;19.33;;;5.63;;
71629;SDS011;59479;51.902;8.212;2024-02-21T01:19:41;15.53;;;6.50;;
71629;SDS011;59479;51.902;8.212;2024-02-21T01:22:06;18.70;;;5.83;;
71629;SDS011;59479;51.902;8.212;2024-02-21T01:24:49;24.92;;;7.15;;
71629;SDS011;59479;51.902;8.212;2024-02-21T01:27:15;22.42;;;5.78;;
71629;SDS011;59479;51.902;8.212;2024-02-21T01:29:40;15.23;;;5.23;;
71629;SDS011;59479;51.902;8.212;2024-02-21T01:32:08;17.42;;;5.60;;
71629;SDS011;59479;51.902;8.212;2024-02-21T01:34:33;22.60;;;6.60;;
71629;SDS011;59479;51.902;8.212;2024-02-21T01:36:59;15.43;;;6.77;;
71629;SDS011;59479;51.902;8.212;2024-02-21T01:39:24;15.60;;;7.40;;
71629;SDS011;59479;51.902;8.212;2024-02-21T01:41:50;18.73;;;5.77;;
71629;SDS011;59479;51.902;8.212;2024-02-21T01:44:15;13.63;;;5.70;;
71629;SDS011;59479;51.902;8.212;2024-02-21T01:46:40;17.83;;;5.63;;
71629;SDS011;59479;51.902;8.212;2024-02-21T01:49:06;22.53;;;5.97;;
71629;SDS011;59479;51.902;8.212;2024-02-21T01:51:31;22.47;;;7.47;;
71629;SDS011;59479;51.902;8.212;2024-02-21T01:53:57;17.27;;;5.45;;
71629;SDS011;59479;51.902;8.212;2024-02-21T01:56:23;21.90;;;7.33;;
71629;SDS011;59479;51.902;8.212;2024-02-21T01:58:49;18.83;;;6.95;;
71629;SDS011;59479;51.902;8.212;2024-02-21T02:01:15;18.27;;;5.80;;
71629;SDS011;59479;51.902;8.212;2024-02-21T02:03:42;13.93;;;5.17;;
71629;SDS011;59479;51.902;8.212;2024-02-21T02:06:10;20.10;;;5.68;;
71629;SDS011;59479;51.902;8.212;2024-02-21T02:08:35;19.43;;;6.63;;
71629;SDS011;59479;51.902;8.212;2024-02-21T02:11:00;19.47;;;6.07;;
71629;SDS011;59479;51.902;8.212;2024-02-21T02:13:26;21.75;;;6.82;;
71629;SDS011;59479;51.902;8.212;2024-02-21T02:15:52;11.90;;;5.10;;
71629;SDS011;59479;51.902;8.212;2024-02-21T02:18:18;20.38;;;6.03;;
71629;SDS011;59479;51.902;8.212;2024-02-21T02:20:44;15.75;;;6.22;;
71629;SDS011;59479;51.902;8.212;2024-02-21T02:25:37;16.90;;;6.63;;
71629;SDS011;59479;51.902;8.212;2024-02-21T02:28:03;21.02;;;6.20;;
71629;SDS011;59479;51.902;8.212;2024-02-21T02:30:32;23.40;;;8.00;;
71629;SDS011;59479;51.902;8.212;2024-02-21T02:33:01;15.05;;;5.85;;
71629;SDS011;59479;51.902;8.212;2024-02-21T02:35:27;21.55;;;7.57;;
71629;SDS011;59479;51.902;8.212;2024-02-21T02:37:53;22.70;;;6.80;;
71629;SDS011;59479;51.902;8.212;2024-02-21T02:40:18;18.63;;;6.30;;
71629;SDS011;59479;51.902;8.212;2024-02-21T02:42:44;19.75;;;6.68;;
71629;SDS011;59479;51.902;8.212;2024-02-21T02:45:09;14.70;;;5.83;;
71629;SDS011;59479;51.902;8.212;2024-02-21T02:47:35;20.10;;;7.03;;
71629;SDS011;59479;51.902;8.212;2024-02-21T02:50:00;16.98;;;6.25;;
71629;SDS011;59479;51.902;8.212;2024-02-21T02:52:26;19.77;;;6.27;;
71629;SDS011;59479;51.902;8.212;2024-02-21T02:54:52;13.15;;;5.55;;
71629;SDS011;59479;51.902;8.212;2024-02-21T02:57:20;12.90;;;4.77;;
71629;SDS011;59479;51.902;8.212;2024-02-21T02:59:49;13.10;;;5.28;;
71629;SDS011;59479;51.902;8.212;2024-02-21T03:02:17;12.63;;;4.85;;
71629;SDS011;59479;51.902;8.212;2024-02-21T03:04:43;13.30;;;4.97;;
71629;SDS011;59479;51.902;8.212;2024-02-21T03:07:09;11.60;;;4.95;;
71629;SDS011;59479;51.902;8.212;2024-02-21T03:09:36;13.10;;;4.90;;
71629;SDS011;59479;51.902;8.212;2024-02-21T03:12:05;14.75;;;4.95;;
71629;SDS011;59479;51.902;8.212;2024-02-21T03:14:34;12.80;;;5.55;;
71629;SDS011;59479;51.902;8.212;2024-02-21T03:17:00;16.92;;;5.80;;
71629;SDS011;59479;51.902;8.212;2024-02-21T03:19:26;16.90;;;5.43;;
71629;SDS011;59479;51.902;8.212;2024-02-21T03:21:51;11.30;;;4.87;;
71629;SDS011;59479;51.902;8.212;2024-02-21T03:24:18;15.88;;;5.38;;
71629;SDS011;59479;51.902;8.212;2024-02-21T03:26:44;13.75;;;5.32;;
71629;SDS011;59479;51.902;8.212;2024-02-21T03:29:10;12.70;;;5.28;;
71629;SDS011;59479;51.902;8.212;2024-02-21T03:31:36;13.83;;;5.93;;
71629;SDS011;59479;51.902;8.212;2024-02-21T03:34:01;9.80;;;4.45;;
71629;SDS011;59479;51.902;8.212;2024-02-21T03:36:27;13.33;;;5.10;;
71629;SDS011;59479;51.902;8.212;2024-02-21T03:38:53;14.47;;;4.50;;
71629;SDS011;59479;51.902;8.212;2024-02-21T03:41:19;10.75;;;4.93;;
71629;SDS011;59479;51.902;8.212;2024-02-21T03:43:44;13.17;;;4.80;;
71629;SDS011;59479;51.902;8.212;2024-02-21T03:46:09;10.20;;;4.40;;
71629;SDS011;59479;51.902;8.212;2024-02-21T03:48:35;9.97;;;4.30;;
71629;SDS011;59479;51.902;8.212;2024-02-21T03:51:01;11.23;;;4.32;;
71629;SDS011;59479;51.902;8.212;2024-02-21T03:53:26;13.63;;;5.23;;
71629;SDS011;59479;51.902;8.212;2024-02-21T03:55:51;13.37;;;4.30;;
71629;SDS011;59479;51.902;8.212;2024-02-21T03:58:17;10.53;;;4.67;;
71629;SDS011;59479;51.902;8.212;2024-02-21T04:00:42;13.67;;;5.57;;
71629;SDS011;59479;51.902;8.212;2024-02-21T04:03:07;8.20;;;4.30;;
71629;SDS011;59479;51.902;8.212;2024-02-21T04:05:33;15.07;;;4.57;;
71629;SDS011;59479;51.902;8.212;2024-02-21T04:07:58;13.17;;;4.73;;
71629;SDS011;59479;51.902;8.212;2024-02-21T04:10:23;11.23;;;4.97;;
71629;SDS011;59479;51.902;8.212;2024-02-21T04:12:49;10.00;;;4.07;;
71629;SDS011;59479;51.902;8.212;2024-02-21T04:15:15;14.98;;;5.03;;
71629;SDS011;59479;51.902;8.212;2024-02-21T04:17:41;12.52;;;4.43;;
71629;SDS011;59479;51.902;8.212;2024-02-21T04:20:13;11.27;;;4.63;;
71629;SDS011;59479;51.902;8.212;2024-02-21T04:22:39;14.07;;;4.80;;
71629;SDS011;59479;51.902;8.212;2024-02-21T04:25:04;11.10;;;4.63;;
71629;SDS011;59479;51.902;8.212;2024-02-21T04:27:30;11.13;;;4.47;;
71629;SDS011;59479;51.902;8.212;2024-02-21T04:29:55;14.30;;;5.27;;
71629;SDS011;59479;51.902;8.212;2024-02-21T04:32:21;10.47;;;4.43;;
71629;SDS011;59479;51.902;8.212;2024-02-21T04:34:46;8.57;;;4.03;;
71629;SDS011;59479;51.902;8.212;2024-02-21T04:37:11;16.58;;;4.85;;
71629;SDS011;59479;51.902;8.212;2024-02-21T04:39:37;7.90;;;3.80;;
71629;SDS011;59479;51.902;8.212;2024-02-21T04:42:02;11.83;;;5.13;;
71629;SDS011;59479;51.902;8.212;2024-02-21T04:44:27;16.87;;;5.00;;
71629;SDS011;59479;51.902;8.212;2024-02-21T04:46:53;9.83;;;4.07;;
71629;SDS011;59479;51.902;8.212;2024-02-21T04:49:18;10.10;;;4.43;;
71629;SDS011;59479;51.902;8.212;2024-02-21T04:51:43;7.73;;;4.03;;
71629;SDS011;59479;51.902;8.212;2024-02-21T04:54:09;14.20;;;4.38;;
71629;SDS011;59479;51.902;8.212;2024-02-21T04:56:34;9.75;;;4.68;;
71629;SDS011;59479;51.902;8.212;2024-02-21T04:58:59;10.03;;;4.17;;
71629;SDS011;59479;51.902;8.212;2024-02-21T05:01:25;14.20;;;4.70;;
71629;SDS011;59479;51.902;8.212;2024-02-21T05:03:50;13.40;;;5.43;;
71629;SDS011;59479;51.902;8.212;2024-02-21T05:06:15;13.03;;;4.90;;
71629;SDS011;59479;51.902;8.212;2024-02-21T05:08:41;10.37;;;4.40;;
71629;SDS011;59479;51.902;8.212;2024-02-21T05:11:06;12.50;;;4.90;;
71629;SDS011;59479;51.902;8.212;2024-02-21T05:13:32;11.07;;;4.68;;
71629;SDS011;59479;51.902;8.212;2024-02-21T05:15:57;12.30;;;4.20;;
71629;SDS011;59479;51.902;8.212;2024-02-21T05:18:26;11.23;;;4.65;;
71629;SDS011;59479;51.902;8.212;2024-02-21T05:20:52;15.10;;;5.13;;
71629;SDS011;59479;51.902;8.212;2024-02-21T05:23:17;13.40;;;5.40;;
71629;SDS011;59479;51.902;8.212;2024-02-21T05:25:42;11.02;;;4.95;;
71629;SDS011;59479;51.902;8.212;2024-02-21T05:28:08;16.53;;;5.40;;
71629;SDS011;59479;51.902;8.212;2024-02-21T05:30:33;16.70;;;5.47;;
71629;SDS011;59479;51.902;8.212;2024-02-21T05:32:58;13.00;;;5.53;;
71629;SDS011;59479;51.902;8.212;2024-02-21T05:35:27;13.77;;;4.50;;
71629;SDS011;59479;51.902;8.212;2024-02-21T05:37:53;19.75;;;7.18;;
71629;SDS011;59479;51.902;8.212;2024-02-21T05:40:18;13.67;;;4.67;;
71629;SDS011;59479;51.902;8.212;2024-02-21T05:42:44;13.97;;;4.87;;
71629;SDS011;59479;51.902;8.212;2024-02-21T05:45:09;9.03;;;4.90;;
71629;SDS011;59479;51.902;8.212;2024-02-21T05:47:34;15.43;;;5.03;;
71629;SDS011;59479;51.902;8.212;2024-02-21T05:50:00;11.33;;;4.47;;
71629;SDS011;59479;51.902;8.212;2024-02-21T05:52:25;12.18;;;4.03;;
71629;SDS011;59479;51.902;8.212;2024-02-21T05:54:50;12.53;;;4.77;;
71629;SDS011;59479;51.902;8.212;2024-02-21T05:57:19;11.87;;;4.97;;
71629;SDS011;59479;51.902;8.212;2024-02-21T05:59:45;15.65;;;4.72;;
71629;SDS011;59479;51.902;8.212;2024-02-21T06:02:10;9.23;;;4.80;;
71629;SDS011;59479;51.902;8.212;2024-02-21T06:04:36;9.77;;;4.93;;
71629;SDS011;59479;51.902;8.212;2024-02-21T06:07:01;12.07;;;4.80;;
71629;SDS011;59479;51.902;8.212;2024-02-21T06:09:27;11.73;;;4.10;;
71629;SDS011;59479;51.902;8.212;2024-02-21T06:11:52;14.57;;;5.20;;
71629;SDS011;59479;51.902;8.212;2024-02-21T06:14:18;17.33;;;4.95;;
71629;SDS011;59479;51.902;8.212;2024-02-21T06:16:44;13.33;;;4.80;;
71629;SDS011;59479;51.902;8.212;2024-02-21T06:19:09;9.30;;;3.93;;
71629;SDS011;59479;51.902;8.212;2024-02-21T06:21:34;12.20;;;5.13;;
71629;SDS011;59479;51.902;8.212;2024-02-21T06:24:00;8.23;;;3.87;;
71629;SDS011;59479;51.902;8.212;2024-02-21T06:26:25;8.63;;;4.07;;
71629;SDS011;59479;51.902;8.212;2024-02-21T06:28:51;8.13;;;4.30;;
71629;SDS011;59479;51.902;8.212;2024-02-21T06:31:16;8.53;;;3.97;;
71629;SDS011;59479;51.902;8.212;2024-02-21T06:33:42;11.48;;;4.60;;
71629;SDS011;59479;51.902;8.212;2024-02-21T06:36:08;14.70;;;4.63;;
71629;SDS011;59479;51.902;8.212;2024-02-21T06:38:33;12.97;;;3.80;;
71629;SDS011;59479;51.902;8.212;2024-02-21T06:40:59;12.55;;;4.22;;
71629;SDS011;59479;51.902;8.212;2024-02-21T06:43:25;7.75;;;3.65;;
71629;SDS011;59479;51.902;8.212;2024-02-21T06:45:51;8.67;;;3.37;;
71629;SDS011;59479;51.902;8.212;2024-02-21T06:48:17;8.52;;;3.85;;
71629;SDS011;59479;51.902;8.212;2024-02-21T06:50:44;7.63;;;3.80;;
71629;SDS011;59479;51.902;8.212;2024-02-21T06:53:09;8.75;;;3.58;;
71629;SDS011;59479;51.902;8.212;2024-02-21T06:55:35;9.60;;;3.70;;
71629;SDS011;59479;51.902;8.212;2024-02-21T06:58:00;10.87;;;3.20;;
71629;SDS011;59479;51.902;8.212;2024-02-21T07:00:27;13.02;;;3.35;;
71629;SDS011;59479;51.902;8.212;2024-02-21T07:02:53;8.45;;;3.85;;
71629;SDS011;59479;51.902;8.212;2024-02-21T07:05:18;7.37;;;3.43;;
71629;SDS011;59479;51.902;8.212;2024-02-21T07:07:44;9.33;;;3.53;;
71629;SDS011;59479;51.902;8.212;2024-02-21T07:10:09;9.50;;;3.00;;
71629;SDS011;59479;51.902;8.212;2024-02-21T07:12:35;11.93;;;3.75;;
71629;SDS011;59479;51.902;8.212;2024-02-21T07:15:03;9.05;;;3.10;;
71629;SDS011;59479;51.902;8.212;2024-02-21T07:17:29;8.50;;;3.13;;
71629;SDS011;59479;51.902;8.212;2024-02-21T07:19:55;10.15;;;3.25;;
71629;SDS011;59479;51.902;8.212;2024-02-21T07:22:22;8.83;;;2.63;;
71629;SDS011;59479;51.902;8.212;2024-02-21T07:24:47;9.93;;;3.08;;
71629;SDS011;59479;51.902;8.212;2024-02-21T07:27:13;9.33;;;3.20;;
71629;SDS011;59479;51.902;8.212;2024-02-21T07:29:40;13.90;;;3.80;;
71629;SDS011;59479;51.902;8.212;2024-02-21T07:32:05;15.23;;;3.13;;
71629;SDS011;59479;51.902;8.212;2024-02-21T07:34:30;7.03;;;3.63;;
71629;SDS011;59479;51.902;8.212;2024-02-21T07:36:56;8.67;;;3.57;;
71629;SDS011;59479;51.902;8.212;2024-02-21T07:39:22;7.50;;;3.10;;
71629;SDS011;59479;51.902;8.212;2024-02-21T07:41:47;7.87;;;2.90;;
71629;SDS011;59479;51.902;8.212;2024-02-21T07:44:14;9.90;;;3.47;;
71629;SDS011;59479;51.902;8.212;2024-02-21T07:46:39;6.87;;;2.90;;
71629;SDS011;59479;51.902;8.212;2024-02-21T07:49:05;6.67;;;2.50;;
71629;SDS011;59479;51.902;8.212;2024-02-21T07:51:30;7.78;;;3.75;;
71629;SDS011;59479;51.902;8.212;2024-02-21T07:53:56;12.10;;;3.10;;
71629;SDS011;59479;51.902;8.212;2024-02-21T07:56:21;6.03;;;3.50;;
71629;SDS011;59479;51.902;8.212;2024-02-21T07:58:47;10.83;;;2.97;;
71629;SDS011;59479;51.902;8.212;2024-02-21T08:01:17;6.85;;;2.72;;
71629;SDS011;59479;51.902;8.212;2024-02-21T08:03:43;5.77;;;2.43;;
71629;SDS011;59479;51.902;8.212;2024-02-21T08:06:11;10.40;;;3.03;;
71629;SDS011;59479;51.902;8.212;2024-02-21T08:08:37;4.45;;;2.20;;
71629;SDS011;59479;51.902;8.212;2024-02-21T08:11:02;4.90;;;2.80;;
71629;SDS011;59479;51.902;8.212;2024-02-21T08:13:28;7.55;;;2.30;;
71629;SDS011;59479;51.902;8.212;2024-02-21T08:15:53;7.60;;;2.90;;
71629;SDS011;59479;51.902;8.212;2024-02-21T08:18:19;6.67;;;2.60;;
71629;SDS011;59479;51.902;8.212;2024-02-21T08:20:44;4.77;;;2.43;;
71629;SDS011;59479;51.902;8.212;2024-02-21T08:23:09;5.47;;;2.70;;
71629;SDS011;59479;51.902;8.212;2024-02-21T08:25:35;5.63;;;2.60;;
71629;SDS011;59479;51.902;8.212;2024-02-21T08:28:00;6.30;;;2.90;;
71629;SDS011;59479;51.902;8.212;2024-02-21T08:30:25;6.30;;;2.37;;
71629;SDS011;59479;51.902;8.212;2024-02-21T08:32:51;8.20;;;2.80;;
71629;SDS011;59479;51.902;8.212;2024-02-21T08:35:16;6.33;;;2.23;;
71629;SDS011;59479;51.902;8.212;2024-02-21T08:37:44;7.80;;;2.78;;
71629;SDS011;59479;51.902;8.212;2024-02-21T08:40:13;6.78;;;2.55;;
71629;SDS011;59479;51.902;8.212;2024-02-21T08:42:38;10.50;;;3.37;;
71629;SDS011;59479;51.902;8.212;2024-02-21T08:45:04;7.10;;;2.27;;
71629;SDS011;59479;51.902;8.212;2024-02-21T08:47:29;6.47;;;2.40;;
71629;SDS011;59479;51.902;8.212;2024-02-21T08:49:55;5.43;;;2.40;;
71629;SDS011;59479;51.902;8.212;2024-02-21T08:52:20;7.83;;;2.60;;
71629;SDS011;59479;51.902;8.212;2024-02-21T08:54:45;4.23;;;2.07;;
71629;SDS011;59479;51.902;8.212;2024-02-21T08:57:11;9.27;;;2.77;;
71629;SDS011;59479;51.902;8.212;2024-02-21T08:59:36;7.17;;;2.37;;
71629;SDS011;59479;51.902;8.212;2024-02-21T09:02:01;5.47;;;2.47;;
71629;SDS011;59479;51.902;8.212;2024-02-21T09:04:28;6.68;;;2.42;;
71629;SDS011;59479;51.902;8.212;2024-02-21T09:06:54;7.83;;;2.63;;
71629;SDS011;59479;51.902;8.212;2024-02-21T09:09:19;10.07;;;2.63;;
71629;SDS011;59479;51.902;8.212;2024-02-21T09:11:45;4.57;;;2.17;;
71629;SDS011;59479;51.902;8.212;2024-02-21T09:14:10;6.03;;;2.50;;
71629;SDS011;59479;51.902;8.212;2024-02-21T09:16:35;4.63;;;2.07;;
71629;SDS011;59479;51.902;8.212;2024-02-21T09:19:00;6.73;;;2.50;;
71629;SDS011;59479;51.902;8.212;2024-02-21T09:21:26;8.13;;;2.53;;
71629;SDS011;59479;51.902;8.212;2024-02-21T09:23:53;4.63;;;2.47;;
71629;SDS011;59479;51.902;8.212;2024-02-21T09:26:18;5.60;;;2.63;;
71629;SDS011;59479;51.902;8.212;2024-02-21T09:28:43;6.37;;;2.10;;
71629;SDS011;59479;51.902;8.212;2024-02-21T09:31:10;6.57;;;2.63;;
71629;SDS011;59479;51.902;8.212;2024-02-21T09:33:35;7.27;;;2.60;;
71629;SDS011;59479;51.902;8.212;2024-02-21T09:36:02;5.78;;;2.53;;
71629;SDS011;59479;51.902;8.212;2024-02-21T09:38:27;5.03;;;2.40;;
71629;SDS011;59479;51.902;8.212;2024-02-21T09:40:55;5.88;;;2.65;;
71629;SDS011;59479;51.902;8.212;2024-02-21T09:43:24;6.17;;;2.40;;
71629;SDS011;59479;51.902;8.212;2024-02-21T09:45:51;7.07;;;2.55;;
71629;SDS011;59479;51.902;8.212;2024-02-21T09:48:25;7.43;;;2.63;;
71629;SDS011;59479;51.902;8.212;2024-02-21T09:51:04;6.53;;;2.40;;
71629;SDS011;59479;51.902;8.212;2024-02-21T09:53:32;6.10;;;2.55;;
71629;SDS011;59479;51.902;8.212;2024-02-21T09:55:59;10.13;;;3.43;;
71629;SDS011;59479;51.902;8.212;2024-02-21T09:58:25;5.30;;;2.78;;
71629;SDS011;59479;51.902;8.212;2024-02-21T10:00:52;7.60;;;3.72;;
71629;SDS011;59479;51.902;8.212;2024-02-21T10:03:18;7.10;;;3.10;;
71629;SDS011;59479;51.902;8.212;2024-02-21T10:05:46;9.40;;;3.20;;
71629;SDS011;59479;51.902;8.212;2024-02-21T10:08:15;11.82;;;3.63;;
71629;SDS011;59479;51.902;8.212;2024-02-21T10:10:44;10.45;;;3.92;;
71629;SDS011;59479;51.902;8.212;2024-02-21T10:13:11;7.60;;;3.57;;
71629;SDS011;59479;51.902;8.212;2024-02-21T10:15:59;9.95;;;4.18;;
71629;SDS011;59479;51.902;8.212;2024-02-21T10:18:25;10.25;;;3.92;;
71629;SDS011;59479;51.902;8.212;2024-02-21T10:20:59;7.47;;;3.83;;
71629;SDS011;59479;51.902;8.212;2024-02-21T10:23:28;10.63;;;4.13;;
71629;SDS011;59479;51.902;8.212;2024-02-21T10:25:54;8.57;;;3.88;;
71629;SDS011;59479;51.902;8.212;2024-02-21T10:28:19;10.07;;;3.50;;
71629;SDS011;59479;51.902;8.212;2024-02-21T10:30:51;8.85;;;4.18;;
71629;SDS011;59479;51.902;8.212;2024-02-21T10:33:17;10.10;;;3.90;;
71629;SDS011;59479;51.902;8.212;2024-02-21T10:35:45;7.60;;;2.90;;
71629;SDS011;59479;51.902;8.212;2024-02-21T10:38:12;12.18;;;4.38;;
71629;SDS011;59479;51.902;8.212;2024-02-21T10:40:38;11.25;;;4.35;;
71629;SDS011;59479;51.902;8.212;2024-02-21T10:43:03;10.50;;;4.33;;
71629;SDS011;59479;51.902;8.212;2024-02-21T10:45:34;10.73;;;4.40;;
71629;SDS011;59479;51.902;8.212;2024-02-21T10:50:56;8.98;;;3.40;;
71629;SDS011;59479;51.902;8.212;2024-02-21T10:56:36;8.00;;;3.33;;
71629;SDS011;59479;51.902;8.212;2024-02-21T10:59:05;8.88;;;3.75;;
71629;SDS011;59479;51.902;8.212;2024-02-21T11:01:31;8.33;;;3.13;;
71629;SDS011;59479;51.902;8.212;2024-02-21T11:03:58;9.98;;;3.58;;
71629;SDS011;59479;51.902;8.212;2024-02-21T11:06:26;10.55;;;3.80;;
71629;SDS011;59479;51.902;8.212;2024-02-21T11:11:27;13.10;;;3.08;;
71629;SDS011;59479;51.902;8.212;2024-02-21T11:14:03;6.67;;;3.30;;
71629;SDS011;59479;51.902;8.212;2024-02-21T11:16:34;7.35;;;3.75;;
71629;SDS011;59479;51.902;8.212;2024-02-21T11:19:04;6.32;;;3.80;;
71629;SDS011;59479;51.902;8.212;2024-02-21T11:21:36;8.17;;;3.43;;
71629;SDS011;59479;51.902;8.212;2024-02-21T11:24:03;8.77;;;3.63;;
71629;SDS011;59479;51.902;8.212;2024-02-21T11:26:29;8.07;;;3.17;;
71629;SDS011;59479;51.902;8.212;2024-02-21T11:29:02;6.82;;;3.00;;
71629;SDS011;59479;51.902;8.212;2024-02-21T11:31:38;7.70;;;2.50;;
71629;SDS011;59479;51.902;8.212;2024-02-21T11:34:08;6.67;;;3.23;;
71629;SDS011;59479;51.902;8.212;2024-02-21T11:36:34;8.45;;;2.67;;
71629;SDS011;59479;51.902;8.212;2024-02-21T11:39:03;7.83;;;3.10;;
71629;SDS011;59479;51.902;8.212;2024-02-21T11:41:29;7.10;;;2.97;;
71629;SDS011;59479;51.902;8.212;2024-02-21T11:43:55;9.50;;;3.07;;
71629;SDS011;59479;51.902;8.212;2024-02-21T11:46:20;5.38;;;2.95;;
71629;SDS011;59479;51.902;8.212;2024-02-21T11:48:46;7.50;;;3.17;;
71629;SDS011;59479;51.902;8.212;2024-02-21T11:51:24;5.85;;;2.85;;
71629;SDS011;59479;51.902;8.212;2024-02-21T11:53:51;7.82;;;2.95;;
71629;SDS011;59479;51.902;8.212;2024-02-21T11:56:17;8.27;;;2.20;;
71629;SDS011;59479;51.902;8.212;2024-02-21T11:58:44;7.47;;;2.47;;
71629;SDS011;59479;51.902;8.212;2024-02-21T12:01:10;4.90;;;2.28;;
71629;SDS011;59479;51.902;8.212;2024-02-21T12:03:36;6.15;;;2.55;;
71629;SDS011;59479;51.902;8.212;2024-02-21T12:06:02;11.07;;;3.47;;
71629;SDS011;59479;51.902;8.212;2024-02-21T12:08:28;10.13;;;4.30;;
71629;SDS011;59479;51.902;8.212;2024-02-21T12:11:15;10.15;;;3.53;;
71629;SDS011;59479;51.902;8.212;2024-02-21T12:13:44;11.20;;;3.67;;
71629;SDS011;59479;51.902;8.212;2024-02-21T12:16:10;7.88;;;3.05;;
71629;SDS011;59479;51.902;8.212;2024-02-21T12:18:36;9.47;;;3.37;;
71629;SDS011;59479;51.902;8.212;2024-02-21T12:21:01;10.10;;;3.40;;
71629;SDS011;59479;51.902;8.212;2024-02-21T12:23:27;9.70;;;3.33;;
71629;SDS011;59479;51.902;8.212;2024-02-21T12:25:52;7.13;;;2.85;;
71629;SDS011;59479;51.902;8.212;2024-02-21T12:28:20;13.23;;;3.10;;
71629;SDS011;59479;51.902;8.212;2024-02-21T12:30:47;7.90;;;3.20;;
71629;SDS011;59479;51.902;8.212;2024-02-21T12:33:12;8.73;;;3.70;;
71629;SDS011;59479;51.902;8.212;2024-02-21T12:35:39;9.90;;;2.88;;
71629;SDS011;59479;51.902;8.212;2024-02-21T12:38:04;11.33;;;3.37;;
71629;SDS011;59479;51.902;8.212;2024-02-21T12:40:30;8.60;;;3.05;;
71629;SDS011;59479;51.902;8.212;2024-02-21T12:42:58;10.63;;;3.75;;
71629;SDS011;59479;51.902;8.212;2024-02-21T12:45:25;8.57;;;3.22;;
71629;SDS011;59479;51.902;8.212;2024-02-21T12:47:50;10.13;;;3.30;;
71629;SDS011;59479;51.902;8.212;2024-02-21T12:50:15;7.70;;;3.60;;
71629;SDS011;59479;51.902;8.212;2024-02-21T12:52:40;13.50;;;3.27;;
71629;SDS011;59479;51.902;8.212;2024-02-21T12:55:06;7.63;;;3.27;;
71629;SDS011;59479;51.902;8.212;2024-02-21T12:57:32;6.57;;;3.03;;
71629;SDS011;59479;51.902;8.212;2024-02-21T12:59:57;7.50;;;3.33;;
71629;SDS011;59479;51.902;8.212;2024-02-21T13:02:22;9.60;;;3.00;;
71629;SDS011;59479;51.902;8.212;2024-02-21T13:04:48;9.90;;;4.00;;
71629;SDS011;59479;51.902;8.212;2024-02-21T13:07:13;8.77;;;3.87;;
71629;SDS011;59479;51.902;8.212;2024-02-21T13:09:39;8.50;;;3.95;;
71629;SDS011;59479;51.902;8.212;2024-02-21T13:12:05;10.17;;;4.17;;
71629;SDS011;59479;51.902;8.212;2024-02-21T13:14:31;7.43;;;3.13;;
71629;SDS011;59479;51.902;8.212;2024-02-21T13:16:58;8.40;;;3.53;;
71629;SDS011;59479;51.902;8.212;2024-02-21T13:19:23;7.37;;;2.97;;
71629;SDS011;59479;51.902;8.212;2024-02-21T13:21:48;7.27;;;3.20;;
71629;SDS011;59479;51.902;8.212;2024-02-21T13:24:14;10.40;;;3.33;;
71629;SDS011;59479;51.902;8.212;2024-02-21T13:26:39;4.63;;;2.37;;
71629;SDS011;59479;51.902;8.212;2024-02-21T13:29:04;6.63;;;3.13;;
71629;SDS011;59479;51.902;8.212;2024-02-21T13:31:30;7.07;;;2.60;;
71629;SDS011;59479;51.902;8.212;2024-02-21T13:33:55;6.50;;;2.37;;
71629;SDS011;59479;51.902;8.212;2024-02-21T13:36:20;7.13;;;2.43;;
71629;SDS011;59479;51.902;8.212;2024-02-21T13:38:46;5.90;;;2.67;;
71629;SDS011;59479;51.902;8.212;2024-02-21T13:41:12;4.88;;;2.47;;
71629;SDS011;59479;51.902;8.212;2024-02-21T13:43:37;5.07;;;2.17;;
71629;SDS011;59479;51.902;8.212;2024-02-21T13:46:02;5.67;;;1.80;;
71629;SDS011;59479;51.902;8.212;2024-02-21T13:48:30;9.20;;;2.15;;
71629;SDS011;59479;51.902;8.212;2024-02-21T13:50:55;12.17;;;3.10;;
71629;SDS011;59479;51.902;8.212;2024-02-21T13:53:21;6.73;;;2.27;;
71629;SDS011;59479;51.902;8.212;2024-02-21T13:55:47;4.97;;;2.17;;
71629;SDS011;59479;51.902;8.212;2024-02-21T13:58:13;5.88;;;2.70;;
71629;SDS011;59479;51.902;8.212;2024-02-21T14:00:39;11.53;;;2.87;;
71629;SDS011;59479;51.902;8.212;2024-02-21T14:03:04;8.40;;;2.15;;
71629;SDS011;59479;51.902;8.212;2024-02-21T14:05:30;5.10;;;2.13;;
71629;SDS011;59479;51.902;8.212;2024-02-21T14:07:55;7.07;;;2.40;;
71629;SDS011;59479;51.902;8.212;2024-02-21T14:10:21;6.03;;;2.00;;
71629;SDS011;59479;51.902;8.212;2024-02-21T14:12:47;8.15;;;2.25;;
71629;SDS011;59479;51.902;8.212;2024-02-21T14:15:13;6.53;;;2.35;;
71629;SDS011;59479;51.902;8.212;2024-02-21T14:17:40;6.40;;;2.37;;
71629;SDS011;59479;51.902;8.212;2024-02-21T14:20:08;7.43;;;2.25;;
71629;SDS011;59479;51.902;8.212;2024-02-21T14:22:34;5.97;;;2.03;;
71629;SDS011;59479;51.902;8.212;2024-02-21T14:25:00;7.57;;;1.95;;
71629;SDS011;59479;51.902;8.212;2024-02-21T14:27:25;9.37;;;2.93;;
71629;SDS011;59479;51.902;8.212;2024-02-21T14:29:51;4.88;;;2.28;;
71629;SDS011;59479;51.902;8.212;2024-02-21T14:32:16;11.00;;;2.40;;
71629;SDS011;59479;51.902;8.212;2024-02-21T14:34:41;4.87;;;2.10;;
71629;SDS011;59479;51.902;8.212;2024-02-21T14:37:07;7.23;;;2.97;;
71629;SDS011;59479;51.902;8.212;2024-02-21T14:39:32;8.33;;;3.07;;
71629;SDS011;59479;51.902;8.212;2024-02-21T14:41:59;5.32;;;2.47;;
71629;SDS011;59479;51.902;8.212;2024-02-21T14:44:25;6.37;;;2.30;;
71629;SDS011;59479;51.902;8.212;2024-02-21T14:46:50;7.23;;;2.00;;